Time;durP1;ratioP1;P1;durP2;ratioP2;P2;SDS_P1;SDS_P2;PMS_P1;PMS_P2;Temp;Humidity;BMP_temperature;BMP_pressure;BME280_temperature;BME280_humidity;BME280_pressure;Samples;Min_cycle;Max_cycle;Signal;HPM_P1;HPM_P2
2022/11/17 00:00:04;;;;;;;1.60;0.88;;;12.10;99.90;;;;;;5073976;28;20075;-74
2022/11/17 00:02:30;;;;;;;9.40;2.80;;;12.10;99.90;;;;;;5073933;28;20039;-74
2022/11/17 00:04:56;;;;;;;6.80;2.83;;;12.20;99.90;;;;;;5074151;28;20052;-75
2022/11/17 00:07:21;;;;;;;5.10;2.30;;;12.30;99.90;;;;;;5074068;28;20028;-74
2022/11/17 00:09:47;;;;;;;6.30;2.55;;;12.30;99.90;;;;;;5072678;28;20407;-74
2022/11/17 00:14:57;;;;;;;3.90;1.73;;;12.50;99.90;;;;;;5073965;28;20038;-70
2022/11/17 00:17:23;;;;;;;3.70;1.50;;;12.60;99.90;;;;;;5073906;28;20120;-74
2022/11/17 00:22:33;;;;;;;6.43;2.25;;;12.50;99.90;;;;;;5073717;28;20091;-74
2022/11/17 00:24:59;;;;;;;9.75;2.70;;;12.60;99.90;;;;;;5072945;28;20072;-70
2022/11/17 00:27:24;;;;;;;9.38;3.22;;;12.60;99.90;;;;;;5075198;28;20085;-71
2022/11/17 00:29:51;;;;;;;4.05;1.15;;;12.50;99.90;;;;;;5078420;28;20097;-73
2022/11/17 00:35:16;;;;;;;7.45;2.03;;;12.40;99.90;;;;;;5067215;28;20048;-74
2022/11/17 00:38:14;;;;;;;1.02;0.70;;;12.40;99.90;;;;;;5079908;28;20039;-73
2022/11/17 00:40:27;;;;;;;8.30;3.03;;;12.50;99.90;;;;;;5079961;28;20056;-68
2022/11/17 00:42:53;;;;;;;2.40;0.98;;;12.50;99.90;;;;;;5080225;28;20438;-74
2022/11/17 00:45:19;;;;;;;4.63;2.20;;;12.50;99.90;;;;;;5080641;28;20079;-74
2022/11/17 00:47:45;;;;;;;8.73;3.15;;;12.40;99.90;;;;;;5080481;28;20032;-74
2022/11/17 00:50:10;;;;;;;5.55;2.22;;;12.40;99.90;;;;;;5079162;28;20044;-73
2022/11/17 00:52:36;;;;;;;1.45;0.80;;;12.60;99.90;;;;;;5079827;28;20050;-74
2022/11/17 00:55:02;;;;;;;3.00;0.50;;;12.60;99.90;;;;;;5080062;28;20450;-74
2022/11/17 00:57:28;;;;;;;0.63;0.35;;;12.60;99.90;;;;;;5080210;28;20097;-73
2022/11/17 00:59:53;;;;;;;1.40;0.40;;;12.70;99.90;;;;;;5080364;28;20538;-73
2022/11/17 01:02:19;;;;;;;0.15;0.15;;;12.90;99.90;;;;;;5080298;28;20033;-74
2022/11/17 01:04:45;;;;;;;1.00;0.30;;;13.10;99.90;;;;;;5080117;28;20040;-74
2022/11/17 01:07:11;;;;;;;0.73;0.22;;;13.10;99.90;;;;;;5080247;28;20044;-74
2022/11/17 01:09:36;;;;;;;0.40;0.20;;;13.10;99.90;;;;;;5079074;28;20036;-74
2022/11/17 01:12:02;;;;;;;0.93;0.30;;;13.40;99.90;;;;;;5080065;28;20046;-74
2022/11/17 01:14:29;;;;;;;0.40;0.30;;;13.50;99.90;;;;;;5080225;28;20029;-73
2022/11/17 01:16:55;;;;;;;0.40;0.30;;;13.40;99.90;;;;;;5079975;28;20047;-71
2022/11/17 01:19:23;;;;;;;1.00;0.30;;;13.60;99.90;;;;;;5078608;28;20041;-73
2022/11/17 01:21:48;;;;;;;1.88;0.43;;;13.60;99.90;;;;;;5079989;28;20051;-71
2022/11/17 01:24:15;;;;;;;2.17;0.30;;;13.60;99.90;;;;;;5080034;28;20411;-74
2022/11/17 01:26:42;;;;;;;0.70;0.30;;;13.60;99.90;;;;;;5078706;28;20504;-69
2022/11/17 01:29:11;;;;;;;1.48;0.22;;;13.60;99.90;;;;;;5080145;28;20388;-74
2022/11/17 01:31:39;;;;;;;0.15;0.10;;;13.60;99.90;;;;;;5079894;28;20131;-74
2022/11/17 01:34:06;;;;;;;0.43;0.20;;;13.60;99.90;;;;;;5080112;28;20570;-74
2022/11/17 01:39:26;;;;;;;1.65;0.20;;;13.60;99.90;;;;;;5076643;28;20055;-74
2022/11/17 01:41:53;;;;;;;2.13;0.70;;;13.60;99.90;;;;;;5075425;28;20126;-74
2022/11/17 01:44:47;;;;;;;1.85;0.30;;;13.60;99.90;;;;;;5076606;28;20543;-75
2022/11/17 01:47:19;;;;;;;0.85;0.32;;;13.60;99.90;;;;;;5076629;28;20036;-75
2022/11/17 01:49:47;;;;;;;0.38;0.38;;;13.60;99.90;;;;;;5076382;28;20040;-68
2022/11/17 01:52:14;;;;;;;0.43;0.20;;;13.50;99.90;;;;;;5076592;28;20029;-74
2022/11/17 01:54:42;;;;;;;0.30;0.20;;;13.60;99.90;;;;;;5075225;28;20067;-74
2022/11/17 01:57:13;;;;;;;1.77;0.75;;;13.50;99.90;;;;;;5076245;28;20036;-75
2022/11/17 01:59:47;;;;;;;0.85;0.45;;;13.50;99.90;;;;;;5074986;28;20033;-75
2022/11/17 02:02:13;;;;;;;0.52;0.30;;;13.50;99.90;;;;;;5076218;28;20459;-74
2022/11/17 02:05:06;;;;;;;2.05;0.40;;;13.40;99.90;;;;;;5076332;28;20136;-72
2022/11/17 02:07:38;;;;;;;2.28;0.30;;;13.40;99.90;;;;;;5074745;28;20484;-72
2022/11/17 02:10:05;;;;;;;4.88;0.40;;;13.50;99.90;;;;;;5075980;28;20040;-74
2022/11/17 02:12:34;;;;;;;0.20;0.10;;;13.60;99.90;;;;;;5076384;28;20041;-71
2022/11/17 02:15:01;;;;;;;1.08;0.43;;;13.60;99.90;;;;;;5076218;28;20058;-74
2022/11/17 02:17:37;;;;;;;4.45;1.05;;;13.50;99.90;;;;;;5076156;28;20113;-75
2022/11/17 02:20:35;;;;;;;5.97;2.05;;;13.40;99.90;;;;;;5075954;28;20044;-74
2022/11/17 02:23:32;;;;;;;5.40;1.83;;;13.50;99.90;;;;;;5039442;28;20071;-73
2022/11/17 02:26:07;;;;;;;4.57;1.50;;;13.40;99.90;;;;;;5074632;28;20040;-75
2022/11/17 02:28:42;;;;;;;7.18;2.15;;;13.40;99.90;;;;;;5075570;28;20452;-75
2022/11/17 02:31:38;;;;;;;0.75;0.40;;;13.40;99.90;;;;;;5072938;28;20044;-74
2022/11/17 02:34:34;;;;;;;2.05;0.77;;;13.40;99.90;;;;;;5060997;28;20370;-74
2022/11/17 02:37:16;;;;;;;2.70;0.55;;;13.50;99.90;;;;;;5044418;28;20098;-74
2022/11/17 02:39:57;;;;;;;2.75;1.30;;;13.40;99.90;;;;;;5055526;28;20045;-74
2022/11/17 02:45:22;;;;;;;2.47;0.40;;;13.30;99.90;;;;;;5064022;28;20266;-74
2022/11/17 02:47:53;;;;;;;2.42;0.60;;;13.30;99.90;;;;;;5075652;28;20048;-67
2022/11/17 02:50:22;;;;;;;1.00;0.38;;;13.30;99.90;;;;;;5073614;28;20515;-75
2022/11/17 02:52:48;;;;;;;1.00;0.35;;;13.20;99.90;;;;;;5074108;28;20127;-68
2022/11/17 02:55:14;;;;;;;3.05;0.30;;;13.20;99.90;;;;;;5074120;28;20123;-68
2022/11/17 02:57:40;;;;;;;1.10;0.35;;;13.10;99.90;;;;;;5073838;28;20090;-74
2022/11/17 03:00:16;;;;;;;1.67;0.40;;;13.10;99.90;;;;;;5075178;28;20032;-69
2022/11/17 03:02:51;;;;;;;1.63;0.45;;;13.00;99.90;;;;;;5075206;28;20079;-68
2022/11/17 03:05:40;;;;;;;5.10;0.80;;;13.20;99.90;;;;;;5075104;28;20049;-74
2022/11/17 03:08:13;;;;;;;1.60;0.40;;;13.20;99.90;;;;;;5073548;28;20076;-68
2022/11/17 03:10:45;;;;;;;0.98;0.22;;;13.20;99.90;;;;;;5093988;28;20047;-67
2022/11/17 03:13:20;;;;;;;1.52;0.40;;;13.20;99.90;;;;;;5095373;28;20105;-68
2022/11/17 03:16:07;;;;;;;0.98;0.30;;;13.30;99.90;;;;;;5093894;28;20032;-67
2022/11/17 03:18:48;;;;;;;2.67;0.57;;;13.30;99.90;;;;;;5095005;28;20036;-74
2022/11/17 03:21:19;;;;;;;;;;;13.40;99.90;;;;;;5095509;28;20040;-71
2022/11/17 03:24:02;;;;;;;2.33;0.68;;;13.50;99.90;;;;;;5094945;28;20359;-76
2022/11/17 03:26:52;;;;;;;4.97;1.05;;;13.60;99.90;;;;;;5095078;28;20392;-68
2022/11/17 03:29:21;;;;;;;3.22;0.73;;;13.60;99.90;;;;;;5095211;28;20066;-67
2022/11/17 03:31:49;;;;;;;3.72;0.90;;;13.70;99.90;;;;;;5094902;28;20067;-77
2022/11/17 03:34:21;;;;;;;2.53;0.88;;;13.70;99.90;;;;;;5094992;28;20522;-77
2022/11/17 03:36:52;;;;;;;4.57;0.90;;;13.60;99.90;;;;;;5094955;28;20020;-77
2022/11/17 03:39:23;;;;;;;;;;;13.50;99.90;;;;;;5094956;28;20062;-73
2022/11/17 03:41:53;;;;;;;1.40;0.52;;;13.50;99.90;;;;;;5093575;28;20345;-77
2022/11/17 03:44:23;;;;;;;2.25;0.85;;;13.40;99.90;;;;;;5094639;28;20048;-70
2022/11/17 03:46:53;;;;;;;5.00;0.93;;;13.30;99.90;;;;;;5094600;28;20032;-75
2022/11/17 03:49:43;;;;;;;2.20;0.93;;;13.20;99.90;;;;;;5094551;28;20669;-74
2022/11/17 03:52:09;;;;;;;6.55;0.85;;;13.20;99.90;;;;;;5094623;28;20062;-67
2022/11/17 03:54:36;;;;;;;2.95;0.60;;;13.20;99.90;;;;;;5093157;28;20115;-72
2022/11/17 03:57:46;;;;;;;2.63;0.80;;;13.30;99.90;;;;;;5094466;28;20074;-74
2022/11/17 04:00:15;;;;;;;3.67;1.27;;;13.10;99.90;;;;;;5089740;28;20101;-75
2022/11/17 04:02:52;;;;;;;5.75;0.77;;;13.10;99.90;;;;;;5094016;28;20032;-74
2022/11/17 04:05:19;;;;;;;6.28;1.02;;;13.00;99.90;;;;;;5094498;28;20047;-74
2022/11/17 04:07:46;;;;;;;4.68;0.95;;;13.10;99.90;;;;;;5094568;28;20495;-74
2022/11/17 04:10:17;;;;;;;10.82;1.20;;;13.20;99.90;;;;;;5094401;28;20040;-74
2022/11/17 04:18:13;;;;;;;2.00;0.77;;;13.30;99.90;;;;;;5094163;28;20046;-74
2022/11/17 04:20:39;;;;;;;4.68;0.80;;;13.40;99.90;;;;;;5094165;28;20047;-74
2022/11/17 04:23:07;;;;;;;5.05;1.02;;;13.50;99.90;;;;;;5094000;28;20043;-74
2022/11/17 04:28:38;;;;;;;5.72;0.90;;;13.50;99.90;;;;;;5094145;28;20047;-68
2022/11/17 04:31:26;;;;;;;3.47;0.80;;;13.50;99.90;;;;;;5094238;28;20044;-74
2022/11/17 04:33:55;;;;;;;6.82;0.80;;;13.40;99.90;;;;;;5093235;28;20070;-74
2022/11/17 04:36:26;;;;;;;7.35;1.00;;;13.30;99.90;;;;;;5094161;28;20040;-74
2022/11/17 04:38:57;;;;;;;3.92;0.70;;;13.20;99.90;;;;;;5094060;28;20121;-74
2022/11/17 04:44:11;;;;;;;5.45;1.05;;;13.20;99.90;;;;;;5093636;28;20097;-69
2022/11/17 04:46:38;;;;;;;3.30;1.00;;;13.20;99.90;;;;;;5075510;28;20039;-68
2022/11/17 04:49:05;;;;;;;3.20;0.80;;;13.20;99.90;;;;;;5073956;28;20048;-74
2022/11/17 04:51:32;;;;;;;4.00;0.77;;;13.10;99.90;;;;;;5073144;28;20043;-75
2022/11/17 04:53:59;;;;;;;4.28;1.00;;;13.10;99.90;;;;;;5072418;28;20365;-68
2022/11/17 04:56:25;;;;;;;3.65;1.00;;;13.10;99.90;;;;;;5073414;28;20082;-70
2022/11/17 04:58:51;;;;;;;5.43;0.88;;;13.00;99.90;;;;;;5073483;28;20070;-74
2022/11/17 05:01:18;;;;;;;3.63;0.75;;;13.20;99.90;;;;;;5073499;28;20037;-75
2022/11/17 05:03:50;;;;;;;10.60;1.33;;;13.10;99.90;;;;;;5073491;28;20380;-75
2022/11/17 05:06:22;;;;;;;7.80;1.00;;;13.00;99.90;;;;;;5072339;28;20044;-68
2022/11/17 05:08:48;;;;;;;2.67;0.63;;;13.00;99.90;;;;;;5073311;28;20554;-67
2022/11/17 05:14:00;;;;;;;6.72;1.25;;;12.80;99.90;;;;;;5074512;28;20557;-74
2022/11/17 05:19:19;;;;;;;5.15;1.65;;;12.80;99.90;;;;;;5077104;28;20043;-74
2022/11/17 05:21:45;;;;;;;2.97;0.88;;;12.80;99.90;;;;;;5075814;28;20032;-67
2022/11/17 05:24:13;;;;;;;7.72;1.25;;;12.80;99.90;;;;;;5077228;28;20055;-75
2022/11/17 05:26:39;;;;;;;3.92;0.80;;;12.80;99.90;;;;;;5077062;28;20143;-67
2022/11/17 05:29:06;;;;;;;6.07;1.20;;;12.80;99.90;;;;;;5075795;28;20123;-75
2022/11/17 05:31:32;;;;;;;3.38;0.80;;;12.90;99.90;;;;;;5076946;28;20037;-75
2022/11/17 05:33:59;;;;;;;4.15;1.02;;;12.90;99.90;;;;;;5076763;28;20492;-75
2022/11/17 05:36:26;;;;;;;4.13;0.80;;;12.80;99.90;;;;;;5076776;28;20452;-74
2022/11/17 05:38:53;;;;;;;5.78;1.60;;;12.80;99.90;;;;;;5076830;28;20040;-74
2022/11/17 05:41:19;;;;;;;8.60;1.27;;;12.90;99.90;;;;;;5076902;28;20047;-67
2022/11/17 05:43:45;;;;;;;4.28;1.13;;;13.00;99.90;;;;;;5076575;28;20078;-68
2022/11/17 05:46:12;;;;;;;6.90;1.50;;;12.90;99.90;;;;;;5075450;28;20048;-74
2022/11/17 05:48:38;;;;;;;5.80;1.23;;;12.90;99.90;;;;;;5076487;28;20036;-68
2022/11/17 05:51:05;;;;;;;8.32;3.55;;;12.90;99.90;;;;;;5075259;28;20037;-74
2022/11/17 05:53:31;;;;;;;7.15;3.38;;;12.90;99.90;;;;;;5076590;28;20040;-74
2022/11/17 05:56:06;;;;;;;6.53;2.97;;;12.80;99.90;;;;;;5076572;28;20044;-74
2022/11/17 05:58:35;;;;;;;10.32;3.53;;;12.70;99.90;;;;;;5076467;28;20040;-74
2022/11/17 06:01:02;;;;;;;10.00;3.63;;;12.80;99.90;;;;;;5075152;28;20058;-74
2022/11/17 06:03:35;;;;;;;4.80;0.95;;;12.70;99.90;;;;;;5076342;28;20055;-74
2022/11/17 06:06:01;;;;;;;9.93;4.95;;;12.70;99.90;;;;;;5076318;28;20047;-67
2022/11/17 06:08:29;;;;;;;28.67;13.02;;;12.80;99.90;;;;;;5076073;28;20123;-67
2022/11/17 06:10:55;;;;;;;9.38;3.67;;;12.80;99.90;;;;;;5076038;28;20036;-75
2022/11/17 06:13:27;;;;;;;5.35;1.20;;;12.80;99.90;;;;;;5074551;28;20032;-75
2022/11/17 06:15:56;;;;;;;4.50;0.77;;;12.80;99.90;;;;;;5075976;28;20088;-74
2022/11/17 06:19:08;;;;;;;5.85;1.50;;;12.80;99.90;;;;;;5076030;28;20123;-74
2022/11/17 06:21:35;;;;;;;7.78;1.25;;;12.80;99.90;;;;;;5074298;28;20102;-74
2022/11/17 06:24:02;;;;;;;3.50;0.88;;;12.70;99.90;;;;;;5074930;28;20048;-75
2022/11/17 06:26:28;;;;;;;9.80;1.42;;;12.60;99.90;;;;;;5075662;28;20531;-74
2022/11/17 06:28:56;;;;;;;6.75;1.45;;;12.50;99.90;;;;;;5075755;28;20073;-75
2022/11/17 06:31:24;;;;;;;5.65;1.30;;;12.50;99.90;;;;;;5075245;28;20029;-71
2022/11/17 06:33:49;;;;;;;6.55;1.20;;;12.30;99.90;;;;;;5074950;28;20070;-74
2022/11/17 06:36:15;;;;;;;3.50;0.98;;;12.20;99.90;;;;;;5071486;28;20032;-70
2022/11/17 06:38:41;;;;;;;6.40;1.52;;;12.10;99.90;;;;;;5057386;28;20048;-74
2022/11/17 06:41:07;;;;;;;7.40;1.98;;;11.80;99.90;;;;;;5054033;28;20052;-67
2022/11/17 06:43:33;;;;;;;4.15;1.15;;;11.80;99.90;;;;;;5055461;28;20055;-72
2022/11/17 06:46:03;;;;;;;3.65;1.38;;;11.80;99.90;;;;;;5055511;28;20048;-74
2022/11/17 06:48:29;;;;;;;3.50;1.27;;;11.90;99.90;;;;;;5054109;28;20127;-71
2022/11/17 06:50:55;;;;;;;4.93;1.50;;;11.70;99.90;;;;;;5055311;28;20075;-73
2022/11/17 06:53:25;;;;;;;4.53;1.30;;;11.60;99.90;;;;;;5055154;28;20504;-74
2022/11/17 06:56:12;;;;;;;2.70;1.08;;;11.60;99.90;;;;;;5072318;28;20151;-73
2022/11/17 06:58:40;;;;;;;3.13;1.20;;;11.60;99.90;;;;;;5074812;28;20079;-67
2022/11/17 07:01:08;;;;;;;3.63;1.40;;;11.80;99.90;;;;;;5073943;28;20036;-67
2022/11/17 07:03:35;;;;;;;4.20;1.20;;;11.80;99.90;;;;;;5074813;28;20040;-76
2022/11/17 07:06:03;;;;;;;7.78;1.20;;;11.80;99.90;;;;;;5073816;28;20384;-76
2022/11/17 07:08:29;;;;;;;5.57;1.45;;;11.80;99.90;;;;;;5073495;28;20032;-69
2022/11/17 07:11:01;;;;;;;1.77;0.80;;;11.70;99.90;;;;;;5075070;28;20065;-76
2022/11/17 07:13:27;;;;;;;4.40;1.83;;;11.50;99.90;;;;;;5074596;28;20051;-74
2022/11/17 07:15:53;;;;;;;8.05;1.45;;;11.50;99.90;;;;;;5074564;28;20044;-75
2022/11/17 07:18:19;;;;;;;6.43;1.50;;;11.60;99.90;;;;;;5074667;28;20098;-70
2022/11/17 07:20:46;;;;;;;4.25;1.08;;;11.70;99.90;;;;;;5074751;28;20075;-69
2022/11/17 07:23:13;;;;;;;3.83;0.80;;;11.70;99.90;;;;;;5074639;28;20080;-76
2022/11/17 07:25:39;;;;;;;5.30;1.05;;;11.70;99.90;;;;;;5073355;28;20123;-76
2022/11/17 07:28:06;;;;;;;2.92;0.98;;;11.70;99.90;;;;;;5074493;28;20502;-67
2022/11/17 07:30:32;;;;;;;4.97;1.13;;;12.00;99.90;;;;;;5072967;28;20438;-76
2022/11/17 07:32:59;;;;;;;12.45;4.22;;;12.20;99.90;;;;;;5073100;28;20036;-68
2022/11/17 07:35:26;;;;;;;17.77;6.25;;;12.40;99.90;;;;;;5074402;28;20370;-75
2022/11/17 07:37:56;;;;;;;10.57;1.52;;;12.30;99.90;;;;;;5073779;28;20067;-76
2022/11/17 07:40:22;;;;;;;8.02;2.10;;;12.10;99.90;;;;;;5074475;28;20036;-75
2022/11/17 07:42:48;;;;;;;7.55;0.85;;;12.10;99.90;;;;;;5074266;28;20046;-76
2022/11/17 07:45:14;;;;;;;6.78;1.42;;;12.00;99.90;;;;;;5072950;28;20033;-76
2022/11/17 07:47:40;;;;;;;4.70;1.20;;;11.90;99.90;;;;;;5074193;28;20465;-75
2022/11/17 07:50:06;;;;;;;4.35;1.20;;;11.70;99.90;;;;;;5074216;28;20085;-76
2022/11/17 07:52:32;;;;;;;4.97;1.13;;;11.60;99.90;;;;;;5072832;28;20040;-76
2022/11/17 07:54:58;;;;;;;4.75;1.25;;;11.70;99.90;;;;;;5072921;28;20043;-67
2022/11/17 07:57:27;;;;;;;2.67;0.80;;;12.00;99.90;;;;;;5074229;28;20041;-75
2022/11/17 07:59:53;;;;;;;8.88;1.25;;;12.40;99.90;;;;;;5072800;28;20052;-76
2022/11/17 08:02:19;;;;;;;6.85;1.15;;;12.60;99.90;;;;;;5072856;28;20032;-68
2022/11/17 08:04:46;;;;;;;6.68;1.58;;;12.80;99.90;;;;;;5072675;28;20078;-68
2022/11/17 08:07:12;;;;;;;13.45;4.78;;;13.10;99.90;;;;;;5074167;28;20036;-77
2022/11/17 08:09:38;;;;;;;13.18;5.13;;;13.40;99.90;;;;;;5073907;28;20075;-71
2022/11/17 08:12:04;;;;;;;10.20;3.30;;;13.20;99.90;;;;;;5073847;28;20072;-69
2022/11/17 08:14:30;;;;;;;8.10;2.35;;;13.10;99.90;;;;;;5072737;28;20045;-75
2022/11/17 08:16:56;;;;;;;15.82;4.70;;;13.00;99.90;;;;;;5074140;28;20109;-68
2022/11/17 08:19:22;;;;;;;13.98;4.55;;;12.80;99.90;;;;;;5074144;28;20059;-76
2022/11/17 08:21:49;;;;;;;19.45;7.82;;;12.60;99.90;;;;;;5074074;28;20099;-72
2022/11/17 08:24:15;;;;;;;22.02;8.70;;;12.60;99.90;;;;;;5072488;28;20419;-70
2022/11/17 08:26:41;;;;;;;19.63;8.50;;;12.60;99.90;;;;;;5073908;28;20040;-69
2022/11/17 08:29:07;;;;;;;19.50;7.55;;;12.60;99.90;;;;;;5072513;28;20071;-73
2022/11/17 08:31:33;;;;;;;22.98;8.15;;;12.60;99.90;;;;;;5073762;28;20543;-72
2022/11/17 08:33:58;;;;;;;16.50;5.60;;;12.60;99.90;;;;;;5073621;28;20047;-75
2022/11/17 08:36:24;;;;;;;18.90;5.97;;;12.50;99.90;;;;;;5071629;28;20427;-72
2022/11/17 08:38:50;;;;;;;47.75;17.45;;;12.60;99.90;;;;;;5070616;28;20040;-72
2022/11/17 08:41:17;;;;;;;11.82;5.05;;;12.60;99.90;;;;;;5072991;28;20490;-73
2022/11/17 08:43:43;;;;;;;8.13;2.05;;;12.60;99.90;;;;;;5071962;28;20384;-73
2022/11/17 08:46:13;;;;;;;5.88;1.73;;;12.70;99.90;;;;;;5069903;28;20043;-73
2022/11/17 08:48:39;;;;;;;6.78;1.50;;;12.70;99.90;;;;;;5073735;28;20040;-73
2022/11/17 08:51:06;;;;;;;10.40;1.70;;;12.70;99.90;;;;;;5074538;28;20132;-73
2022/11/17 08:53:32;;;;;;;4.13;1.40;;;12.80;99.90;;;;;;5075240;28;20190;-73
2022/11/17 08:55:58;;;;;;;12.32;3.70;;;12.80;99.90;;;;;;5073943;28;20131;-71
2022/11/17 08:58:24;;;;;;;9.10;2.65;;;12.80;99.90;;;;;;5075721;28;20040;-72
2022/11/17 09:00:50;;;;;;;17.42;6.10;;;12.90;99.90;;;;;;5077227;28;20101;-72
2022/11/17 09:03:16;;;;;;;21.42;6.18;;;12.90;99.90;;;;;;5075995;28;20051;-71
2022/11/17 09:05:45;;;;;;;18.23;5.75;;;12.90;99.90;;;;;;5075310;28;20048;-69
2022/11/17 09:08:13;;;;;;;21.27;6.80;;;12.90;99.90;;;;;;5075293;28;20056;-72
2022/11/17 09:10:39;;;;;;;16.50;6.18;;;13.00;99.90;;;;;;5076578;28;20281;-72
2022/11/17 09:13:06;;;;;;;13.13;4.00;;;12.90;99.90;;;;;;5073662;28;20496;-73
2022/11/17 09:15:32;;;;;;;5.43;1.70;;;12.80;99.90;;;;;;5073786;28;20480;-73
2022/11/17 09:17:59;;;;;;;6.57;1.65;;;12.90;99.90;;;;;;5073674;28;20631;-72
2022/11/17 09:20:24;;;;;;;6.13;2.45;;;12.80;99.90;;;;;;5074777;28;20051;-71
2022/11/17 09:22:50;;;;;;;4.85;1.73;;;12.70;99.90;;;;;;5074761;28;20044;-70
2022/11/17 09:25:16;;;;;;;14.38;4.15;;;12.60;99.90;;;;;;5074219;28;20040;-69
2022/11/17 09:27:44;;;;;;;8.40;2.30;;;12.50;99.90;;;;;;5075046;28;20040;-70
2022/11/17 09:30:10;;;;;;;5.15;1.70;;;12.60;99.90;;;;;;5074566;28;20036;-71
2022/11/17 09:32:36;;;;;;;5.90;2.33;;;12.60;99.90;;;;;;5074843;28;20040;-71
2022/11/17 09:35:05;;;;;;;4.15;1.88;;;12.60;99.90;;;;;;5073246;28;20400;-70
2022/11/17 09:37:31;;;;;;;14.32;4.25;;;12.60;99.90;;;;;;5074801;28;20036;-70
2022/11/17 09:39:57;;;;;;;7.25;2.13;;;12.70;99.90;;;;;;5075515;28;20179;-71
2022/11/17 09:42:23;;;;;;;5.75;1.50;;;12.60;99.90;;;;;;5076686;28;20491;-71
2022/11/17 09:44:55;;;;;;;5.45;1.40;;;12.60;99.90;;;;;;5075260;28;20059;-71
2022/11/17 09:47:47;;;;;;;3.70;0.88;;;12.50;99.90;;;;;;5076621;28;20036;-72
2022/11/17 09:50:30;;;;;;;5.15;1.40;;;12.60;99.90;;;;;;5076335;28;20055;-71
2022/11/17 09:53:24;;;;;;;3.45;1.55;;;12.50;99.90;;;;;;5076452;28;20036;-71
2022/11/17 09:55:59;;;;;;;9.10;3.53;;;12.50;99.90;;;;;;5076411;28;20443;-70
2022/11/17 09:58:32;;;;;;;10.38;4.32;;;12.60;99.90;;;;;;5073028;28;20520;-70
2022/11/17 10:01:00;;;;;;;3.95;1.30;;;12.70;99.90;;;;;;5065269;28;20037;-70
2022/11/17 10:03:36;;;;;;;3.95;1.55;;;12.80;99.90;;;;;;5052983;28;20057;-70
2022/11/17 10:06:20;;;;;;;7.85;1.75;;;12.70;99.90;;;;;;5052940;28;20087;-69
2022/11/17 10:08:59;;;;;;;5.57;1.45;;;12.70;99.90;;;;;;5054499;28;20043;-70
2022/11/17 10:11:35;;;;;;;5.07;1.48;;;12.80;99.90;;;;;;5069549;28;20036;-71
2022/11/17 10:14:08;;;;;;;4.47;1.20;;;12.80;99.90;;;;;;5053214;28;20051;-72
2022/11/17 10:16:37;;;;;;;2.78;1.08;;;12.80;99.90;;;;;;5054048;28;20060;-73
2022/11/17 10:19:22;;;;;;;8.43;1.70;;;12.80;99.90;;;;;;5053885;28;20079;-72
2022/11/17 10:22:03;;;;;;;5.32;1.45;;;12.80;99.90;;;;;;5055419;28;20373;-72
2022/11/17 10:24:34;;;;;;;4.82;1.02;;;12.80;99.90;;;;;;5054170;28;20055;-72
2022/11/17 10:27:02;;;;;;;6.20;1.52;;;12.80;99.90;;;;;;5070728;28;20446;-73
2022/11/17 10:29:28;;;;;;;8.32;1.27;;;12.90;99.90;;;;;;5053628;28;20385;-74
2022/11/17 10:31:54;;;;;;;4.57;1.25;;;13.00;99.90;;;;;;5053537;28;20047;-73
2022/11/17 10:34:33;;;;;;;6.18;1.23;;;13.00;99.90;;;;;;5053438;28;20041;-74
2022/11/17 10:37:23;;;;;;;5.05;1.15;;;12.90;99.90;;;;;;5053487;28;20039;-74
2022/11/17 10:39:48;;;;;;;5.82;1.10;;;13.00;99.90;;;;;;5053986;28;20546;-74
2022/11/17 10:42:24;;;;;;;3.65;1.30;;;13.10;99.90;;;;;;5053784;28;20041;-75
2022/11/17 10:44:52;;;;;;;5.53;1.30;;;13.10;99.90;;;;;;5059047;28;20098;-74
2022/11/17 10:47:27;;;;;;;2.75;1.00;;;13.20;99.90;;;;;;5072751;28;20617;-75
2022/11/17 10:50:18;;;;;;;3.95;1.08;;;13.20;99.90;;;;;;5074215;28;20500;-75
2022/11/17 10:52:44;;;;;;;;;;;13.30;99.90;;;;;;5072757;28;20094;-75
2022/11/17 10:55:23;;;;;;;3.83;1.33;;;13.50;99.90;;;;;;5073175;28;19912;-75
2022/11/17 10:58:26;;;;;;;5.05;0.90;;;13.50;99.90;;;;;;5071589;28;20450;-73
2022/11/17 11:00:57;;;;;;;4.22;1.00;;;13.50;99.90;;;;;;5066415;28;20036;-72
2022/11/17 11:03:32;;;;;;;4.97;1.10;;;13.60;99.90;;;;;;5071638;28;20045;-75
2022/11/17 11:06:21;;;;;;;18.02;8.20;;;13.60;99.90;;;;;;5072589;28;20037;-74
2022/11/17 11:09:17;;;;;;;12.88;5.47;;;13.60;99.90;;;;;;5075016;28;20040;-75
2022/11/17 11:11:55;;;;;;;15.40;7.63;;;13.60;99.90;;;;;;5070871;28;20052;-75
2022/11/17 11:14:29;;;;;;;21.50;5.25;;;;;;;;;;5072177;28;20046;-74
2022/11/17 11:16:56;;;;;;;18.52;6.28;;;13.70;99.90;;;;;;5073086;28;20047;-74
2022/11/17 11:19:22;;;;;;;17.55;5.35;;;13.70;99.90;;;;;;5072608;28;20044;-74
2022/11/17 11:22:23;;;;;;;12.10;4.95;;;13.60;99.90;;;;;;5072729;28;20036;-74
2022/11/17 11:24:54;;;;;;;8.95;4.97;;;13.60;99.90;;;;;;5072866;28;20052;-74
2022/11/17 11:27:23;;;;;;;15.95;7.43;;;13.50;99.90;;;;;;5072490;28;20052;-74
2022/11/17 11:30:14;;;;;;;9.35;3.78;;;13.40;99.90;;;;;;5070814;28;20062;-74
2022/11/17 11:33:17;;;;;;;13.45;5.88;;;13.40;99.90;;;;;;5067381;28;20046;-75
2022/11/17 11:36:08;;;;;;;73.43;34.72;;;13.40;99.90;;;;;;5073450;28;20043;-74
2022/11/17 11:39:03;;;;;;;7.97;2.97;;;13.50;99.90;;;;;;5071004;28;20500;-74
2022/11/17 11:41:47;;;;;;;4.13;2.03;;;13.50;99.90;;;;;;5069931;28;20480;-74
2022/11/17 11:44:58;;;;;;;4.82;1.55;;;13.40;99.90;;;;;;5070203;28;20044;-74
2022/11/17 11:47:45;;;;;;;9.98;2.30;;;13.50;99.90;;;;;;5067410;28;20033;-74
2022/11/17 11:50:27;;;;;;;5.88;1.70;;;13.50;99.90;;;;;;5070910;28;20462;-74
2022/11/17 11:53:12;;;;;;;5.32;1.27;;;13.60;99.90;;;;;;5072120;28;20486;-75
2022/11/17 11:55:41;;;;;;;10.63;2.20;;;13.60;99.90;;;;;;5069967;28;20162;-75
2022/11/17 11:58:21;;;;;;;5.60;1.20;;;13.80;99.90;;;;;;5056342;28;20098;-75
2022/11/17 12:00:51;;;;;;;9.70;1.90;;;14.00;99.90;;;;;;5051241;28;20099;-75
2022/11/17 12:03:37;;;;;;;15.18;2.13;;;14.10;99.90;;;;;;5050774;28;20110;-69
2022/11/17 12:06:41;;;;;;;11.27;1.88;;;14.10;99.90;;;;;;5057896;28;20036;-79
2022/11/17 12:09:43;;;;;;;4.65;1.67;;;14.20;99.90;;;;;;5055610;28;20044;-75
2022/11/17 12:12:19;;;;;;;7.68;2.20;;;14.20;99.90;;;;;;5051067;28;20033;-75
2022/11/17 12:15:14;;;;;;;9.38;1.63;;;14.20;99.90;;;;;;5053813;28;20036;-75
2022/11/17 12:18:12;;;;;;;6.68;2.88;;;14.30;99.90;;;;;;5053753;28;20040;-75
2022/11/17 12:20:53;;;;;;;8.52;2.97;;;14.20;99.90;;;;;;5052912;28;20045;-75
2022/11/17 12:23:22;;;;;;;9.43;2.47;;;14.20;99.90;;;;;;5051189;28;20065;-74
2022/11/17 12:25:53;;;;;;;25.17;9.27;;;14.20;99.90;;;;;;5052071;28;20045;-74
2022/11/17 12:28:35;;;;;;;12.23;3.60;;;14.20;99.90;;;;;;5051728;28;20846;-75
2022/11/17 12:31:24;;;;;;;10.07;3.13;;;14.20;99.90;;;;;;5050428;28;20082;-74
2022/11/17 12:33:54;;;;;;;9.20;3.28;;;14.20;99.90;;;;;;5052128;28;20048;-74
2022/11/17 12:36:25;;;;;;;8.70;3.47;;;14.20;99.90;;;;;;5068169;28;20048;-74
2022/11/17 12:38:53;;;;;;;12.93;4.13;;;14.20;99.90;;;;;;5067632;28;20041;-75
2022/11/17 12:41:43;;;;;;;8.52;2.83;;;14.20;99.90;;;;;;5070496;28;20078;-75
2022/11/17 12:44:31;;;;;;;7.68;2.47;;;14.20;99.90;;;;;;5064830;28;20044;-74
2022/11/17 12:47:27;;;;;;;7.65;2.78;;;14.20;99.90;;;;;;5070092;28;20036;-70
2022/11/17 12:49:57;;;;;;;11.98;2.80;;;14.20;99.90;;;;;;5069640;28;20573;-71
2022/11/17 12:53:03;;;;;;;8.18;2.08;;;14.30;99.90;;;;;;5067835;28;20039;-74
2022/11/17 12:55:34;;;;;;;12.02;2.15;;;14.40;99.90;;;;;;5070916;28;20079;-74
2022/11/17 12:58:22;;;;;;;5.88;1.60;;;14.50;99.90;;;;;;5070012;28;20483;-74
2022/11/17 13:01:14;;;;;;;7.28;1.38;;;14.60;99.90;;;;;;5068254;28;20028;-69
2022/11/17 13:03:53;;;;;;;17.10;3.25;;;14.60;99.90;;;;;;5055975;28;20057;-74
2022/11/17 13:06:20;;;;;;;12.95;2.58;;;14.50;99.90;;;;;;5051135;28;20036;-74
2022/11/17 13:09:00;;;;;;;9.98;2.80;;;14.60;99.90;;;;;;5050225;28;20456;-73
2022/11/17 13:11:28;;;;;;;7.82;2.08;;;14.50;99.90;;;;;;5049427;28;20045;-74
2022/11/17 13:14:15;;;;;;;8.57;2.20;;;14.50;99.90;;;;;;5050123;28;20040;-74
2022/11/17 13:16:47;;;;;;;6.05;2.63;;;14.50;99.90;;;;;;5058655;28;20133;-74
2022/11/17 13:19:44;;;;;;;11.68;2.15;;;14.40;99.90;;;;;;5063156;28;20076;-71
2022/11/17 13:22:15;;;;;;;7.18;1.83;;;14.40;99.90;;;;;;5041710;28;20041;-74
2022/11/17 13:24:44;;;;;;;13.77;2.95;;;14.40;99.90;;;;;;5052496;28;20119;-75
2022/11/17 13:27:28;;;;;;;10.90;1.50;;;14.40;99.90;;;;;;5052564;28;20388;-74
2022/11/17 13:30:19;;;;;;;7.30;1.77;;;14.40;99.90;;;;;;5051330;28;20076;-74
2022/11/17 13:32:46;;;;;;;8.45;1.27;;;14.40;99.90;;;;;;5049611;28;20435;-73
2022/11/17 13:35:27;;;;;;;12.25;2.72;;;14.40;99.90;;;;;;5050199;28;20401;-74
2022/11/17 13:38:22;;;;;;;;;;;14.30;99.90;;;;;;5070334;28;20049;-74
2022/11/17 13:40:51;;;;;;;10.63;2.10;;;14.30;99.90;;;;;;5055090;28;19923;-69
2022/11/17 13:43:23;;;;;;;16.98;2.42;;;14.30;99.90;;;;;;5069968;28;20044;-74